createdAt,value
2018-09-18T00:00:04.203Z,13.03
2018-09-18T00:05:04.199Z,12.95
2018-09-18T00:10:04.197Z,12.89
2018-09-18T00:15:04.214Z,12.93
2018-09-18T00:20:04.209Z,12.95
2018-09-18T00:25:04.207Z,12.97
2018-09-18T00:30:04.225Z,12.99
2018-09-18T00:35:04.210Z,13.04
2018-09-18T00:40:04.221Z,13.04
2018-09-18T00:45:04.227Z,12.82
2018-09-18T00:50:04.224Z,12.69
2018-09-18T00:55:04.225Z,12.51
2018-09-18T01:00:04.232Z,12.35
2018-09-18T01:05:04.222Z,12.32
2018-09-18T01:10:04.229Z,12.22
2018-09-18T01:15:04.250Z,12.23
2018-09-18T01:20:04.233Z,12.18
2018-09-18T01:25:04.238Z,12.12
2018-09-18T01:30:04.248Z,12.07
2018-09-18T01:35:04.243Z,12.12
2018-09-18T01:40:04.264Z,12.19
2018-09-18T01:45:04.255Z,12.28
2018-09-18T01:50:04.266Z,12.55
2018-09-18T01:55:04.255Z,12.67
2018-09-18T02:00:04.277Z,12.78
2018-09-18T02:05:04.258Z,12.8
2018-09-18T02:10:04.282Z,12.73
2018-09-18T02:15:04.269Z,12.53
2018-09-18T02:20:04.284Z,12.4
2018-09-18T02:25:04.272Z,12.3
2018-09-18T02:30:04.288Z,12.32
2018-09-18T02:35:04.279Z,12.49
2018-09-18T02:40:04.293Z,12.66
2018-09-18T02:45:04.292Z,12.72
2018-09-18T02:50:04.299Z,12.78
2018-09-18T02:55:04.287Z,12.78
2018-09-18T03:00:04.313Z,12.69
2018-09-18T03:05:04.290Z,12.62
2018-09-18T03:10:04.293Z,12.45
2018-09-18T03:15:04.304Z,12.22
2018-09-18T03:20:04.300Z,12.05
2018-09-18T03:25:04.305Z,12
2018-09-18T03:30:04.325Z,12.14
2018-09-18T03:35:04.309Z,12.31
2018-09-18T03:40:04.309Z,12.4
2018-09-18T03:45:04.320Z,12.42
2018-09-18T03:50:04.314Z,12.27
2018-09-18T03:55:04.319Z,12.15
2018-09-18T04:00:04.330Z,12.26
2018-09-18T04:05:04.328Z,12.3
2018-09-18T04:10:04.330Z,12.31
2018-09-18T04:15:04.338Z,12.31
2018-09-18T04:20:04.332Z,12.29
2018-09-18T04:25:04.333Z,12.29
2018-09-18T04:30:04.365Z,12.19
2018-09-18T04:35:04.341Z,11.99
2018-09-18T04:40:04.343Z,11.84
2018-09-18T04:45:04.364Z,11.73
2018-09-18T04:50:04.349Z,11.77
2018-09-18T04:55:04.414Z,11.83
2018-09-18T05:00:04.367Z,11.87
2018-09-18T05:05:04.361Z,11.88
2018-09-18T05:10:04.359Z,11.87
2018-09-18T05:15:04.380Z,11.91
2018-09-18T05:20:04.373Z,11.97
2018-09-18T05:25:04.371Z,11.94
2018-09-18T05:30:04.382Z,12.13
2018-09-18T05:35:04.374Z,12.25
2018-09-18T05:40:04.378Z,12.42
2018-09-18T05:45:04.402Z,12.61
2018-09-18T05:50:04.379Z,12.93
2018-09-18T05:55:04.385Z,13.34
2018-09-18T06:00:04.397Z,13.62
2018-09-18T06:05:04.385Z,13.74
2018-09-18T06:10:03.394Z,13.8
2018-09-18T06:15:03.399Z,13.76
2018-09-18T06:20:03.416Z,13.75
2018-09-18T06:25:03.407Z,13.88
2018-09-18T06:30:03.404Z,14.11
2018-09-18T06:35:03.411Z,14.34
2018-09-18T06:40:03.430Z,14.62
2018-09-18T06:45:03.409Z,14.89
2018-09-18T06:50:03.412Z,15.16
2018-09-18T06:55:03.433Z,15.62
2018-09-18T07:00:03.419Z,16.06
2018-09-18T07:05:03.420Z,16.55
2018-09-18T07:10:03.432Z,16.86
2018-09-18T07:15:03.428Z,17.13
2018-09-18T07:20:03.426Z,17.44
2018-09-18T07:25:03.437Z,17.72
2018-09-18T07:30:03.434Z,17.96
2018-09-18T07:35:03.439Z,18.18
2018-09-18T07:40:03.455Z,18.39
2018-09-18T07:45:03.442Z,18.58
2018-09-18T07:50:03.447Z,18.76
2018-09-18T07:55:03.462Z,18.95
2018-09-18T08:00:03.451Z,19.21
2018-09-18T08:05:03.455Z,19.54
2018-09-18T08:10:03.464Z,19.8
2018-09-18T08:15:03.461Z,20.1
2018-09-18T08:20:03.462Z,20.29
2018-09-18T08:25:03.530Z,20.47
2018-09-18T08:30:03.474Z,20.68
2018-09-18T08:35:03.475Z,20.95
2018-09-18T08:40:03.589Z,21.33
2018-09-18T08:45:03.480Z,21.73
2018-09-18T08:50:03.497Z,21.85
2018-09-18T08:55:03.495Z,21.94
2018-09-18T09:00:03.484Z,22.19
2018-09-18T09:05:03.485Z,22.65
2018-09-18T09:10:03.637Z,22.99
2018-09-18T09:15:03.552Z,23.71
2018-09-18T09:20:03.504Z,25.66
2018-09-18T09:25:03.523Z,27.06
2018-09-18T09:30:03.597Z,27.56
2018-09-18T09:35:03.502Z,27.07
2018-09-18T09:40:03.588Z,26.4
2018-09-18T09:45:03.573Z,26.04
2018-09-18T09:50:03.516Z,25.88
2018-09-18T09:55:03.536Z,26.07
2018-09-18T10:00:03.518Z,26.68
2018-09-18T10:05:03.519Z,27.55
2018-09-18T10:10:03.529Z,28.45
2018-09-18T10:15:03.526Z,28.18
2018-09-18T10:20:03.526Z,27.52
2018-09-18T10:25:03.580Z,27.43
2018-09-18T10:30:03.541Z,27.3
2018-09-18T10:35:03.568Z,27.26
2018-09-18T10:40:03.541Z,27.28
2018-09-18T10:45:03.548Z,27.2
2018-09-18T10:50:03.544Z,27.32
2018-09-18T10:55:03.549Z,27.43
2018-09-18T11:00:03.574Z,27.57
2018-09-18T11:05:03.558Z,27.76
2018-09-18T11:10:03.748Z,27.97
2018-09-18T11:15:03.655Z,28.33
2018-09-18T11:20:03.642Z,28.69
2018-09-18T11:25:03.566Z,29.27
2018-09-18T11:30:03.577Z,29.28
2018-09-18T11:35:03.575Z,29.24
2018-09-18T11:40:03.571Z,29.38
2018-09-18T11:45:03.578Z,29.6
2018-09-18T11:50:03.577Z,31.04
2018-09-18T11:55:03.577Z,32.16
2018-09-18T12:00:03.585Z,31.69
2018-09-18T12:05:03.662Z,31.25
2018-09-18T12:10:03.593Z,30.75
2018-09-18T12:15:03.598Z,30.32
2018-09-18T12:20:03.601Z,30.19
2018-09-18T12:25:03.595Z,30.1
2018-09-18T12:30:03.613Z,30.03
2018-09-18T12:35:03.607Z,30.05
2018-09-18T12:40:03.603Z,30.11
2018-09-18T12:45:03.619Z,30.16
2018-09-18T12:50:03.966Z,30.44
2018-09-18T12:55:03.618Z,30.57
2018-09-18T13:00:03.663Z,30.51
2018-09-18T13:05:03.623Z,30.56
2018-09-18T13:10:03.660Z,30.59
2018-09-18T13:15:03.637Z,30.67
2018-09-18T13:20:03.703Z,30.81
2018-09-18T13:25:03.625Z,30.93
2018-09-18T13:30:03.636Z,31.04
2018-09-18T13:35:03.636Z,31.12
2018-09-18T13:40:03.634Z,31.28
2018-09-18T13:45:03.658Z,31.68
2018-09-18T13:50:03.640Z,32.07
2018-09-18T13:55:03.644Z,32.59
2018-09-18T14:00:03.658Z,33.6
2018-09-18T14:05:03.650Z,34.77
2018-09-18T14:10:03.656Z,36.49
2018-09-18T14:15:03.853Z,38.34
2018-09-18T14:20:03.658Z,39.52
2018-09-18T14:25:03.662Z,40.13
2018-09-18T14:30:03.669Z,40.38
2018-09-18T14:35:03.664Z,40.29
2018-09-18T14:40:03.667Z,40.03
2018-09-18T14:45:03.961Z,40.42
2018-09-18T14:50:03.669Z,40.46
2018-09-18T14:55:03.679Z,40.71
2018-09-18T15:00:03.702Z,40.36
2018-09-18T15:05:03.676Z,39.67
2018-09-18T15:10:03.682Z,39.36
2018-09-18T15:15:03.690Z,39.26
2018-09-18T15:20:03.691Z,38.71
2018-09-18T15:25:03.693Z,36.69
2018-09-18T15:30:03.696Z,34.4
2018-09-18T15:35:03.697Z,33.01
2018-09-18T15:40:03.759Z,32.1
2018-09-18T15:45:04.756Z,31.48
2018-09-18T15:50:03.702Z,30.86
2018-09-18T15:55:03.813Z,30.57
2018-09-18T16:00:03.733Z,30.38
2018-09-18T16:05:03.735Z,30.13
2018-09-18T16:10:03.728Z,29.89
2018-09-18T16:15:03.742Z,29.68
2018-09-18T16:20:03.736Z,29.47
2018-09-18T16:25:04.548Z,29.23
2018-09-18T16:30:03.715Z,29
2018-09-18T16:35:03.746Z,28.79
2018-09-18T16:40:03.754Z,28.55
2018-09-18T16:45:03.734Z,28.29
2018-09-18T16:50:03.748Z,28
2018-09-18T16:55:03.838Z,27.74
2018-09-18T17:00:03.771Z,27.43
2018-09-18T17:05:03.760Z,27.14
2018-09-18T17:10:03.747Z,26.81
2018-09-18T17:15:03.749Z,26.49
2018-09-18T17:20:03.768Z,26.22
2018-09-18T17:25:03.755Z,26.05
2018-09-18T17:30:03.759Z,25.83
2018-09-18T17:35:03.763Z,25.62
2018-09-18T17:40:03.800Z,25.38
2018-09-18T17:45:03.764Z,25.2
2018-09-18T17:50:03.898Z,25.02
2018-09-18T17:55:03.785Z,24.83
2018-09-18T18:00:03.770Z,24.56
2018-09-18T18:05:03.782Z,24.3
2018-09-18T18:10:03.814Z,23.97
2018-09-18T18:15:03.774Z,23.77
2018-09-18T18:20:03.828Z,23.67
2018-09-18T18:25:03.783Z,23.6
2018-09-18T18:30:03.788Z,23.53
2018-09-18T18:35:03.804Z,23.55
2018-09-18T18:40:03.798Z,23.5
2018-09-18T18:45:03.796Z,23.54
2018-09-18T18:50:03.821Z,23.46
2018-09-18T18:55:03.801Z,23.5
2018-09-18T19:00:03.799Z,23.37
2018-09-18T19:05:03.817Z,23.23
2018-09-18T19:10:03.805Z,23.28
2018-09-18T19:15:03.813Z,23.47
2018-09-18T19:20:03.833Z,23.73
2018-09-18T19:25:03.822Z,24.01
2018-09-18T19:30:03.817Z,23.91
2018-09-18T19:35:03.835Z,23.73
2018-09-18T19:40:03.829Z,23.32
2018-09-18T19:45:03.843Z,22.86
2018-09-18T19:50:03.841Z,22.55
2018-09-18T19:55:03.835Z,22.4
2018-09-18T20:00:03.836Z,22.47
2018-09-18T20:05:03.863Z,22.64
2018-09-18T20:10:03.846Z,22.75
2018-09-18T20:15:03.845Z,22.93
2018-09-18T20:20:03.855Z,23.02
2018-09-18T20:25:03.853Z,23.03
2018-09-18T20:30:03.848Z,23.14
2018-09-18T20:35:03.867Z,23.14
2018-09-18T20:40:03.860Z,23.15
2018-09-18T20:45:03.864Z,23.18
2018-09-18T20:50:03.890Z,23.23
2018-09-18T20:55:03.867Z,23.11
2018-09-18T21:00:03.867Z,23.02
2018-09-18T21:05:03.875Z,22.97
2018-09-18T21:10:03.875Z,23.02
2018-09-18T21:15:03.878Z,22.96
2018-09-18T21:20:03.884Z,22.92
2018-09-18T21:25:03.884Z,22.68
2018-09-18T21:30:03.884Z,22.46
2018-09-18T21:35:03.900Z,22.26
2018-09-18T21:40:03.896Z,22.04
2018-09-18T21:45:03.899Z,21.85
2018-09-18T21:50:03.911Z,21.73
2018-09-18T21:55:03.896Z,21.49
2018-09-18T22:00:03.900Z,21.39
2018-09-18T22:05:03.925Z,21.21
2018-09-18T22:10:03.906Z,21.14
2018-09-18T22:15:03.905Z,21
2018-09-18T22:20:03.929Z,20.85
2018-09-18T22:25:03.916Z,20.69
2018-09-18T22:30:03.938Z,20.48
2018-09-18T22:35:03.939Z,20.28
2018-09-18T22:40:03.926Z,19.99
2018-09-18T22:45:03.924Z,19.85
2018-09-18T22:50:03.943Z,19.82
2018-09-18T22:55:03.927Z,19.77
2018-09-18T23:00:03.935Z,19.61
2018-09-18T23:05:03.944Z,19.36
2018-09-18T23:10:03.965Z,19.15
2018-09-18T23:15:03.974Z,18.99
2018-09-18T23:20:03.963Z,18.76
2018-09-18T23:25:03.941Z,18.5
2018-09-18T23:30:03.948Z,18.34
2018-09-18T23:35:03.956Z,18.26
2018-09-18T23:40:03.950Z,18.19
2018-09-18T23:45:03.962Z,17.95
2018-09-18T23:50:03.977Z,17.66
2018-09-18T23:55:03.969Z,17.34
